Time;durP1;ratioP1;P1;durP2;ratioP2;P2;SDS_P1;SDS_P2;PMS_P1;PMS_P2;Temp;Humidity;BMP_temperature;BMP_pressure;BME280_temperature;BME280_humidity;BME280_pressure;Samples;Min_cycle;Max_cycle;Signal;HPM_P1;HPM_P2
2021/03/15 00:00:24;;;;;;;4.78;3.13;;;4.00;80.90;;;2.25;78.27;95666.97;4928688;29;20491;-70
2021/03/15 00:02:51;;;;;;;4.47;3.20;;;4.10;80.80;;;2.25;77.98;95667.78;4926132;28;20031;-70
2021/03/15 00:05:17;;;;;;;5.35;3.13;;;4.10;80.70;;;2.25;77.58;95667.78;4933762;28;20032;-71
2021/03/15 00:07:43;;;;;;;5.00;3.30;;;4.00;80.90;;;2.25;77.68;95661.78;4953322;28;20100;-70
2021/03/15 00:10:09;;;;;;;5.57;3.00;;;4.00;81.20;;;2.25;78.24;95657.41;4920943;29;20055;-70
2021/03/15 00:12:36;;;;;;;4.00;2.97;;;4.00;81.10;;;2.23;77.67;95658.50;4918579;29;20436;-71
2021/03/15 00:15:03;;;;;;;4.95;3.05;;;4.00;81.40;;;2.23;78.17;95661.13;4912438;29;20032;-70
2021/03/15 00:17:28;;;;;;;3.97;2.90;;;4.00;81.30;;;2.24;77.51;95663.56;4941793;28;20178;-70
2021/03/15 00:19:54;;;;;;;3.63;2.83;;;3.90;81.40;;;2.24;78.46;95655.78;4942966;28;20043;-69
2021/03/15 00:22:20;;;;;;;4.10;3.25;;;4.00;81.20;;;2.25;77.57;95660.00;4934967;29;20039;-70
2021/03/15 00:24:46;;;;;;;5.20;3.05;;;4.10;81.10;;;2.26;77.97;95664.22;4916971;29;20373;-70
2021/03/15 00:27:11;;;;;;;3.53;2.70;;;4.00;81.20;;;2.27;78.20;95665.88;4951722;28;20039;-70
2021/03/15 00:29:37;;;;;;;4.57;3.00;;;4.10;81.30;;;2.28;78.45;95653.72;4910187;29;20515;-70
2021/03/15 00:32:03;;;;;;;3.85;2.83;;;4.10;81.10;;;2.26;78.10;95659.03;4904515;29;20067;-71
2021/03/15 00:34:33;;;;;;;3.92;3.10;;;4.00;81.40;;;2.25;78.34;95662.59;4933380;29;20044;-70
2021/03/15 00:36:59;;;;;;;4.13;2.78;;;4.00;81.50;;;2.26;78.27;95659.03;4930081;29;20047;-70
2021/03/15 00:39:25;;;;;;;4.28;3.05;;;4.00;81.50;;;2.25;78.07;95659.19;4930849;29;20044;-70
2021/03/15 00:41:51;;;;;;;5.40;3.08;;;4.00;81.50;;;2.25;77.91;95665.19;4933109;29;20063;-69
2021/03/15 00:44:16;;;;;;;4.20;3.22;;;4.10;81.40;;;2.25;78.65;95662.59;4898545;29;20047;-70
2021/03/15 00:46:42;;;;;;;3.67;3.08;;;4.00;81.60;;;2.24;78.51;95649.78;4915248;29;20177;-70
2021/03/15 00:49:08;;;;;;;3.45;2.97;;;4.00;81.70;;;2.25;78.90;95654.81;4945575;29;20089;-70
2021/03/15 00:51:34;;;;;;;4.20;3.30;;;4.00;81.70;;;2.25;78.50;95657.41;4933602;29;20466;-71
2021/03/15 00:53:59;;;;;;;3.50;2.90;;;4.00;81.70;;;2.24;78.71;95663.56;4915310;29;20074;-71
2021/03/15 00:56:25;;;;;;;5.25;3.45;;;3.90;81.80;;;2.22;78.84;95652.50;4929655;29;20070;-71
2021/03/15 00:58:51;;;;;;;4.32;3.78;;;3.90;82.10;;;2.20;78.76;95649.25;4930784;29;20071;-70
2021/03/15 01:01:17;;;;;;;4.80;3.80;;;3.90;82.20;;;2.20;78.81;95654.44;4914986;29;20063;-70
2021/03/15 01:03:43;;;;;;;5.43;3.97;;;4.00;82.20;;;2.21;78.88;95655.25;4917392;29;20531;-70
2021/03/15 01:06:11;;;;;;;5.38;3.58;;;4.00;82.00;;;2.20;79.34;95659.63;4912621;29;20032;-70
2021/03/15 01:08:38;;;;;;;4.63;3.95;;;3.90;82.40;;;2.18;78.97;95651.19;4898317;29;20036;-70
2021/03/15 01:11:04;;;;;;;5.45;4.00;;;3.90;82.40;;;2.16;78.81;95653.13;4936540;29;20046;-70
2021/03/15 01:13:29;;;;;;;4.65;4.20;;;3.90;82.30;;;2.16;79.17;95645.34;4914091;29;20466;-70
2021/03/15 01:15:56;;;;;;;4.70;3.97;;;3.80;82.50;;;2.15;79.21;95636.72;4913939;29;20032;-69
2021/03/15 01:18:21;;;;;;;6.30;4.32;;;3.90;82.40;;;2.13;78.84;95633.47;4939268;28;20030;-70
2021/03/15 01:20:47;;;;;;;6.22;4.25;;;3.80;82.40;;;2.10;79.29;95632.97;4936195;29;20065;-71
2021/03/15 01:23:13;;;;;;;5.25;4.43;;;3.70;82.50;;;2.08;79.67;95634.88;4917034;29;20126;-71
2021/03/15 01:25:40;;;;;;;4.47;3.85;;;3.80;82.00;;;2.07;79.61;95635.84;4917000;29;20092;-71
2021/03/15 01:28:13;;;;;;;7.88;4.90;;;3.80;82.00;;;2.03;79.92;95632.72;4920951;29;20040;-70
2021/03/15 01:30:40;;;;;;;5.72;4.72;;;3.70;82.10;;;1.99;79.68;95635.75;4912467;29;20098;-71
2021/03/15 01:33:06;;;;;;;5.13;4.22;;;3.60;82.20;;;1.96;78.85;95636.88;4938058;29;20043;-70
2021/03/15 01:35:32;;;;;;;4.93;4.20;;;3.70;82.00;;;1.94;78.67;95628.44;4930993;29;20557;-71
2021/03/15 01:37:58;;;;;;;6.45;4.82;;;3.70;81.70;;;1.93;78.58;95631.16;4910066;29;20509;-71
2021/03/15 01:40:24;;;;;;;7.38;5.00;;;3.70;81.40;;;1.89;79.15;95628.06;4897602;29;20055;-71
2021/03/15 01:42:50;;;;;;;5.80;4.95;;;3.60;81.50;;;1.85;79.03;95629.31;4932940;29;20031;-71
2021/03/15 01:45:15;;;;;;;7.25;5.07;;;3.60;81.80;;;1.84;79.05;95623.31;4932483;28;20043;-71
2021/03/15 01:47:42;;;;;;;5.25;4.43;;;3.70;81.50;;;1.82;78.58;95622.66;4932313;29;20051;-71
2021/03/15 01:50:09;;;;;;;8.23;5.53;;;3.60;81.30;;;1.78;79.42;95623.88;4929998;28;20031;-71
2021/03/15 01:52:35;;;;;;;6.55;5.00;;;3.60;81.60;;;1.76;79.34;95628.41;4915082;29;20047;-72
2021/03/15 01:55:03;;;;;;;8.25;5.80;;;3.50;81.80;;;1.74;79.23;95621.72;4920838;28;20039;-72
2021/03/15 01:57:29;;;;;;;7.50;5.05;;;3.50;82.00;;;1.72;79.34;95621.06;4929145;29;20028;-72
2021/03/15 01:59:55;;;;;;;7.05;5.38;;;3.50;82.10;;;1.69;79.26;95614.41;4947756;29;20601;-71
2021/03/15 02:02:21;;;;;;;7.88;5.47;;;3.50;81.90;;;1.68;79.71;95607.59;4914379;29;20039;-72
2021/03/15 02:04:46;;;;;;;6.40;5.18;;;3.40;82.30;;;1.64;79.23;95608.84;4921393;29;20032;-71
2021/03/15 02:07:12;;;;;;;7.60;6.00;;;3.40;82.40;;;1.59;79.61;95605.88;4908861;29;20039;-71
2021/03/15 02:09:38;;;;;;;8.80;5.93;;;3.30;82.50;;;1.58;79.31;95606.81;4913289;29;20071;-71
2021/03/15 02:12:51;;;;;;;10.32;5.85;;;3.30;82.70;;;1.55;81.87;95599.34;4901637;29;20419;-71
2021/03/15 02:15:42;;;;;;;8.75;6.05;;;3.20;83.10;;;1.54;80.99;95595.09;4853120;29;20041;-71
2021/03/15 02:18:40;;;;;;;8.80;6.25;;;3.30;83.10;;;1.53;81.25;95599.47;4952205;28;20108;-71
2021/03/15 02:21:38;;;;;;;8.23;5.70;;;3.20;83.30;;;1.57;81.49;95599.19;4932917;29;20035;-71
2021/03/15 02:24:18;;;;;;;8.10;6.30;;;3.30;83.10;;;1.57;80.83;95600.00;4914792;29;20044;-71
2021/03/15 02:27:22;;;;;;;7.53;5.57;;;3.30;83.00;;;1.57;81.55;95592.22;4923769;29;20032;-71
2021/03/15 02:29:57;;;;;;;7.35;6.18;;;3.40;83.20;;;1.58;80.72;95601.63;4930788;29;20440;-72
2021/03/15 02:33:19;;;;;;;6.85;5.93;;;3.40;83.00;;;1.58;81.48;95596.44;4922660;29;20058;-71
2021/03/15 02:35:46;;;;;;;6.50;5.28;;;3.30;83.10;;;1.58;79.82;95596.44;4931948;29;20446;-71
2021/03/15 02:38:12;;;;;;;9.48;6.15;;;3.30;83.00;;;1.59;79.44;95581.75;4934706;28;20031;-71
2021/03/15 02:40:46;;;;;;;11.95;6.30;;;3.40;83.00;;;1.57;81.22;95594.81;4947907;28;20039;-70
2021/03/15 02:43:26;;;;;;;9.25;5.90;;;3.30;82.90;;;1.56;81.50;95590.59;4929250;29;20063;-71
2021/03/15 02:45:55;;;;;;;6.82;5.43;;;3.30;83.00;;;1.56;80.60;95582.81;4932643;29;20036;-71
2021/03/15 02:48:21;;;;;;;9.00;5.97;;;3.40;82.90;;;1.57;79.73;95588.81;4915537;28;20854;-71
2021/03/15 02:50:47;;;;;;;8.60;5.50;;;3.30;82.80;;;1.54;79.45;95588.16;4918447;28;20051;-71
2021/03/15 02:53:16;;;;;;;10.35;5.70;;;3.30;82.90;;;1.54;79.89;95588.16;4942987;28;20057;-71
2021/03/15 02:55:42;;;;;;;7.00;5.53;;;3.30;82.80;;;1.55;79.87;95591.56;4926157;29;20057;-71
2021/03/15 02:58:07;;;;;;;7.95;5.60;;;3.30;83.10;;;1.55;79.49;95591.56;4888486;29;20040;-70
2021/03/15 03:00:34;;;;;;;9.93;6.30;;;3.30;82.80;;;1.56;80.05;95594.97;4913657;28;20744;-71
2021/03/15 03:03:00;;;;;;;7.07;5.47;;;3.30;82.90;;;1.56;79.98;95594.97;4931984;29;20361;-70
2021/03/15 03:05:26;;;;;;;8.45;5.13;;;3.40;82.60;;;1.57;80.13;95591.41;4931582;28;20600;-70
2021/03/15 03:07:53;;;;;;;8.27;4.80;;;3.40;82.80;;;1.60;79.76;95594.56;4942560;29;20040;-72
2021/03/15 03:10:21;;;;;;;9.88;6.05;;;3.40;82.30;;;1.62;79.72;95590.03;4940167;28;20043;-71
2021/03/15 03:12:47;;;;;;;12.25;7.90;;;3.50;82.30;;;1.65;80.11;95591.50;4935897;29;20050;-71
2021/03/15 03:15:14;;;;;;;11.00;8.13;;;3.50;82.20;;;1.67;80.37;95585.22;4916556;29;20035;-70
2021/03/15 03:17:40;;;;;;;9.93;6.45;;;3.60;82.40;;;1.71;80.33;95586.53;4931564;29;20063;-70
2021/03/15 03:20:12;;;;;;;17.77;11.90;;;3.60;82.00;;;1.73;80.59;95578.63;4943506;28;20041;-70
2021/03/15 03:22:41;;;;;;;16.45;10.57;;;3.70;82.10;;;1.76;79.92;95589.50;4938918;28;20034;-72
2021/03/15 03:25:17;;;;;;;7.82;5.65;;;3.70;81.60;;;1.77;80.62;95585.94;4925115;29;20121;-71
2021/03/15 03:27:53;;;;;;;7.03;4.88;;;3.60;81.20;;;1.74;79.93;95586.25;4934991;28;20065;-71
2021/03/15 03:30:26;;;;;;;8.13;5.57;;;3.50;81.60;;;1.73;80.12;95591.59;4920104;28;20028;-72
2021/03/15 03:32:53;;;;;;;6.55;4.65;;;3.50;81.80;;;1.72;79.84;95583.00;4934716;29;20118;-72
2021/03/15 03:35:18;;;;;;;6.65;4.72;;;3.50;82.10;;;1.72;79.93;95577.00;4930912;29;20070;-72
2021/03/15 03:37:44;;;;;;;8.43;4.50;;;3.50;82.10;;;1.73;79.99;95574.25;4910081;28;20110;-72
2021/03/15 03:40:11;;;;;;;11.90;6.85;;;3.60;81.70;;;1.74;79.57;95569.88;4933501;28;20059;-72
2021/03/15 03:42:37;;;;;;;9.98;6.95;;;3.50;82.10;;;1.75;79.78;95577.50;4914601;29;20098;-72
2021/03/15 03:45:05;;;;;;;9.63;6.57;;;3.60;82.30;;;1.79;79.55;95572.84;4933665;29;20036;-72
2021/03/15 03:47:30;;;;;;;11.02;6.43;;;3.60;82.40;;;1.81;79.86;95576.09;4949456;28;20035;-72
2021/03/15 03:49:57;;;;;;;11.98;6.28;;;3.60;82.20;;;1.79;79.99;95568.47;4916686;29;20082;-71
2021/03/15 03:52:24;;;;;;;6.68;4.57;;;3.60;82.20;;;1.75;80.14;95569.72;4913942;29;20043;-71
2021/03/15 03:54:50;;;;;;;5.88;4.57;;;3.40;82.60;;;1.72;79.81;95570.03;4914825;29;20523;-72
2021/03/15 03:57:22;;;;;;;8.88;4.95;;;3.40;82.80;;;1.67;81.14;95564.47;4914215;29;20036;-72
2021/03/15 03:59:49;;;;;;;5.85;4.72;;;3.30;83.30;;;1.64;79.69;95559.59;4919405;29;20120;-72
2021/03/15 04:02:15;;;;;;;6.38;5.00;;;3.40;83.20;;;1.66;80.61;95572.41;4914744;29;20039;-71
2021/03/15 04:04:46;;;;;;;6.22;4.63;;;3.40;83.10;;;1.64;80.93;95566.56;4927003;29;20447;-72
2021/03/15 04:07:12;;;;;;;8.02;5.22;;;3.40;83.30;;;1.65;80.25;95568.19;4914422;29;20031;-72
2021/03/15 04:09:37;;;;;;;6.40;4.47;;;3.50;83.30;;;1.65;80.42;95571.59;4917348;29;20039;-71
2021/03/15 04:12:11;;;;;;;8.35;4.93;;;3.50;83.10;;;1.69;82.47;95567.75;4916890;29;20039;-71
2021/03/15 04:14:45;;;;;;;5.95;4.30;;;3.60;82.90;;;1.66;81.30;95557.66;4900916;29;20040;-71
2021/03/15 04:17:14;;;;;;;7.20;4.50;;;3.50;82.90;;;1.67;80.58;95554.09;4917442;29;20070;-68
2021/03/15 04:19:47;;;;;;;7.28;4.72;;;3.50;82.60;;;1.64;81.55;95557.00;4924442;29;20094;-71
2021/03/15 04:22:13;;;;;;;6.07;4.47;;;3.40;83.10;;;1.60;80.91;95562.63;4920619;29;20057;-71
2021/03/15 04:24:40;;;;;;;6.13;4.82;;;3.30;83.90;;;1.59;80.82;95567.00;4931797;29;20039;-72
2021/03/15 04:27:06;;;;;;;7.05;4.90;;;3.40;84.00;;;1.59;81.50;95561.00;4932902;29;20027;-71
2021/03/15 04:29:32;;;;;;;5.55;4.43;;;3.40;83.90;;;1.59;81.08;95572.19;4913801;29;20042;-71
2021/03/15 04:31:59;;;;;;;7.00;4.65;;;3.40;83.90;;;1.60;81.13;95563.44;4922303;28;20514;-71
2021/03/15 04:34:25;;;;;;;7.10;4.85;;;3.40;83.70;;;1.60;81.17;95558.25;4930452;29;20047;-72
2021/03/15 04:36:53;;;;;;;6.75;4.43;;;3.40;83.80;;;1.58;81.28;95557.56;4914127;29;20040;-71
2021/03/15 04:39:19;;;;;;;6.47;5.15;;;3.30;84.00;;;1.57;80.96;95553.34;4917519;29;20139;-71
2021/03/15 04:41:45;;;;;;;8.57;5.28;;;3.30;83.90;;;1.55;81.22;95560.47;4929433;29;20032;-72
2021/03/15 04:44:11;;;;;;;7.93;5.25;;;3.20;84.20;;;1.56;81.08;95561.28;4937594;28;20035;-72
2021/03/15 04:46:37;;;;;;;8.18;4.93;;;3.30;84.40;;;1.56;81.58;95546.53;4923622;29;20082;-70
2021/03/15 04:49:07;;;;;;;7.53;5.22;;;3.40;84.40;;;1.59;81.00;95546.28;4915927;29;20488;-71
2021/03/15 04:51:33;;;;;;;8.38;5.05;;;3.60;83.80;;;1.62;81.05;95547.75;4907523;29;20047;-67
2021/03/15 04:53:59;;;;;;;8.02;5.13;;;3.60;83.50;;;1.63;81.21;95547.59;4922979;29;20079;-69
2021/03/15 04:56:25;;;;;;;7.78;4.88;;;3.60;83.50;;;1.65;81.23;95548.25;4908544;29;20051;-67
2021/03/15 04:58:51;;;;;;;6.63;5.13;;;3.60;83.30;;;1.66;80.83;95542.13;4919940;28;20659;-69
2021/03/15 05:01:17;;;;;;;8.07;5.30;;;3.60;83.50;;;1.65;81.10;95535.28;4915467;28;20086;-71
2021/03/15 05:03:42;;;;;;;6.50;5.00;;;3.60;83.20;;;1.68;81.58;95540.19;4936668;29;20039;-72
2021/03/15 05:06:08;;;;;;;8.88;5.30;;;3.60;83.10;;;1.72;81.13;95535.50;4931321;29;20039;-72
2021/03/15 05:08:45;;;;;;;8.07;5.45;;;3.70;82.80;;;1.75;82.18;95535.22;4932326;29;20028;-73
2021/03/15 05:11:10;;;;;;;6.05;4.80;;;3.60;82.70;;;1.75;81.02;95536.03;4901574;29;20530;-72
2021/03/15 05:13:37;;;;;;;7.57;4.95;;;3.60;82.90;;;1.76;81.27;95532.47;4897603;29;20067;-72
2021/03/15 05:16:03;;;;;;;8.95;5.68;;;3.60;82.60;;;1.75;81.06;95525.66;4881831;29;20040;-73
2021/03/15 05:18:29;;;;;;;6.75;5.45;;;3.60;82.60;;;1.73;81.11;95531.97;4898698;29;20118;-72
2021/03/15 05:20:54;;;;;;;9.18;5.88;;;3.60;82.60;;;1.73;80.85;95534.53;4932282;29;20801;-73
2021/03/15 05:23:20;;;;;;;10.93;5.75;;;3.50;82.40;;;1.70;81.11;95527.06;4914696;29;20530;-73
2021/03/15 05:25:49;;;;;;;8.27;5.53;;;3.60;82.60;;;1.70;81.04;95522.69;4934144;29;20435;-72
2021/03/15 05:28:15;;;;;;;10.07;6.05;;;3.60;82.30;;;1.67;80.54;95525.59;4912534;28;20059;-72
2021/03/15 05:30:41;;;;;;;5.95;5.20;;;3.60;82.30;;;1.63;80.81;95532.03;4916529;29;20031;-73
2021/03/15 05:33:12;;;;;;;8.82;5.55;;;3.60;81.80;;;1.62;81.28;95527.81;4931876;29;20442;-73
2021/03/15 05:35:39;;;;;;;;;;;3.60;81.60;;;1.57;81.19;95521.44;4929224;29;20032;-72
2021/03/15 05:38:05;;;;;;;5.65;4.97;;;3.40;81.90;;;1.51;80.50;95512.47;4912344;29;20378;-72
2021/03/15 05:40:30;;;;;;;7.43;5.80;;;3.40;82.20;;;1.51;80.72;95525.44;4931758;29;20086;-73
2021/03/15 05:43:24;;;;;;;6.45;5.65;;;3.40;82.30;;;1.49;81.96;95520.41;4914899;28;20059;-73
2021/03/15 05:46:25;;;;;;;8.43;5.47;;;3.40;82.10;;;1.51;81.95;95512.47;4917675;29;20114;-70
2021/03/15 05:49:27;;;;;;;7.15;5.32;;;3.40;82.20;;;1.51;82.12;95513.28;4918023;29;20122;-72
2021/03/15 05:52:09;;;;;;;6.20;4.80;;;3.50;82.00;;;1.51;81.96;95512.47;4944911;28;20044;-68
2021/03/15 05:55:03;;;;;;;6.03;4.57;;;3.50;81.80;;;1.51;81.34;95502.91;4896934;29;20627;-69
2021/03/15 05:58:06;;;;;;;6.22;4.40;;;3.50;81.70;;;1.53;81.38;95507.97;4919928;29;20043;-69
2021/03/15 06:01:22;;;;;;;7.13;4.70;;;3.50;81.70;;;1.56;82.01;95510.25;4930865;29;20462;-68
2021/03/15 06:04:16;;;;;;;8.90;4.75;;;3.50;81.60;;;1.57;81.91;95506.69;4932634;29;20388;-72
2021/03/15 06:06:42;;;;;;;5.53;4.70;;;3.50;81.60;;;1.59;80.69;95504.78;4936681;28;20490;-69
2021/03/15 06:09:08;;;;;;;7.63;4.53;;;3.60;81.60;;;1.63;79.72;95498.34;4947322;28;20038;-70
2021/03/15 06:11:44;;;;;;;7.10;4.47;;;3.60;81.30;;;1.64;80.64;95499.97;4938864;28;20033;-69
2021/03/15 06:14:12;;;;;;;9.35;5.25;;;3.60;80.60;;;1.68;80.57;95497.91;4941276;29;20104;-69
2021/03/15 06:16:38;;;;;;;7.60;4.43;;;3.60;81.00;;;1.68;80.47;95488.34;4927349;29;20024;-65
2021/03/15 06:19:04;;;;;;;6.22;4.68;;;3.60;80.90;;;1.72;80.03;95489.66;4927510;29;20044;-67
2021/03/15 06:21:30;;;;;;;10.70;5.65;;;3.70;80.90;;;1.77;80.51;95484.84;4938744;28;20630;-71
2021/03/15 06:23:59;;;;;;;5.63;3.78;;;3.80;80.70;;;1.80;80.49;95481.94;4945453;28;20206;-71
2021/03/15 06:26:28;;;;;;;6.32;4.10;;;3.70;80.50;;;1.86;80.00;95492.69;4906631;28;20035;-70
2021/03/15 06:28:55;;;;;;;8.23;3.85;;;3.90;80.30;;;1.91;79.88;95485.28;4899869;29;20032;-68
2021/03/15 06:31:21;;;;;;;4.82;3.78;;;4.00;80.20;;;1.95;80.06;95484.00;4916727;29;20565;-69
2021/03/15 06:33:46;;;;;;;5.13;3.35;;;4.00;79.50;;;2.03;79.70;95476.28;4933211;29;20051;-70
2021/03/15 06:36:12;;;;;;;4.95;3.50;;;4.20;79.30;;;2.09;79.77;95483.47;4932215;29;20039;-68
2021/03/15 06:38:38;;;;;;;8.10;4.88;;;4.10;78.80;;;2.16;79.90;95476.69;4900531;28;20051;-68
2021/03/15 06:41:07;;;;;;;6.18;3.97;;;4.30;78.60;;;2.22;79.80;95481.28;4935871;28;20057;-67
2021/03/15 06:43:33;;;;;;;7.00;3.35;;;4.40;78.40;;;2.29;79.32;95471.94;4938440;28;20027;-67
2021/03/15 06:45:59;;;;;;;5.47;3.30;;;4.40;77.70;;;2.34;79.13;95480.06;4955413;28;20042;-69
2021/03/15 06:48:25;;;;;;;6.05;3.20;;;4.40;77.40;;;2.43;79.38;95473.13;4934857;29;20511;-67
2021/03/15 06:50:52;;;;;;;5.65;3.30;;;4.60;77.10;;;2.50;79.15;95474.16;4949967;28;20086;-71
2021/03/15 06:53:17;;;;;;;6.88;3.25;;;4.70;77.30;;;2.60;78.53;95480.03;4933385;29;20452;-72
2021/03/15 06:55:48;;;;;;;5.20;3.15;;;4.80;76.80;;;2.68;78.58;95476.66;4919137;29;20119;-67
2021/03/15 06:58:28;;;;;;;5.10;3.00;;;4.90;75.90;;;2.76;77.97;95474.91;4935820;28;20077;-68
2021/03/15 07:01:09;;;;;;;4.70;3.30;;;4.90;75.80;;;2.85;77.78;95467.97;4932427;29;20035;-69
2021/03/15 07:03:34;;;;;;;5.72;3.40;;;5.00;75.70;;;2.89;77.97;95464.06;4948773;28;20039;-70
2021/03/15 07:06:01;;;;;;;6.40;2.72;;;5.00;75.70;;;2.99;77.61;95472.56;4916253;29;20671;-69
2021/03/15 07:08:26;;;;;;;9.55;3.75;;;5.10;75.60;;;3.06;78.06;95470.16;4947348;28;20066;-70
2021/03/15 07:10:55;;;;;;;3.95;2.80;;;5.20;74.80;;;3.15;77.70;95476.16;4918489;28;20027;-68
2021/03/15 07:13:22;;;;;;;4.68;2.70;;;5.30;74.60;;;3.20;77.27;95476.53;4923520;29;20110;-70
2021/03/15 07:15:49;;;;;;;4.30;2.83;;;5.30;74.70;;;3.24;77.06;95477.84;4937744;28;20035;-71
2021/03/15 07:18:26;;;;;;;7.63;2.60;;;5.40;74.60;;;3.23;76.53;95477.03;4912146;28;20680;-69
2021/03/15 07:20:59;;;;;;;9.00;2.90;;;5.20;74.60;;;3.21;75.88;95476.38;4951708;28;20699;-68
2021/03/15 07:23:45;;;;;;;3.67;2.10;;;5.10;74.20;;;3.23;75.55;95477.03;4902019;29;20036;-68
2021/03/15 07:26:18;;;;;;;5.60;3.22;;;5.20;74.50;;;3.25;75.99;95479.47;4924469;28;20122;-71
2021/03/15 07:28:44;;;;;;;6.85;2.42;;;5.20;74.20;;;3.26;76.42;95474.09;4927821;29;20674;-70
2021/03/15 07:31:31;;;;;;;5.68;2.78;;;5.10;74.10;;;3.24;75.61;95472.63;4935595;29;20100;-70
2021/03/15 07:33:57;;;;;;;4.70;2.60;;;5.20;74.00;;;3.28;76.35;95479.94;4950456;28;20030;-74
2021/03/15 07:36:29;;;;;;;6.15;2.97;;;5.30;74.50;;;3.31;75.69;95473.63;4964218;28;20090;-71
2021/03/15 07:38:56;;;;;;;5.28;2.28;;;5.20;74.40;;;3.35;76.04;95472.31;4900846;29;20147;-68
2021/03/15 07:41:22;;;;;;;7.03;2.60;;;5.40;74.60;;;3.39;75.67;95465.81;4901014;29;20512;-69
2021/03/15 07:43:49;;;;;;;6.07;2.63;;;5.30;74.00;;;3.40;75.47;95464.88;4932075;29;20042;-68
2021/03/15 07:46:21;;;;;;;5.50;2.50;;;5.20;74.00;;;3.38;74.98;95464.19;4933735;28;20074;-68
2021/03/15 07:48:47;;;;;;;5.80;2.35;;;5.20;74.30;;;3.41;75.67;95468.28;4922137;28;20119;-69
2021/03/15 07:51:13;;;;;;;4.32;2.30;;;5.30;75.50;;;3.45;75.91;95460.00;4943014;28;20039;-67
2021/03/15 07:53:46;;;;;;;5.70;2.35;;;5.40;75.00;;;3.52;75.25;95463.56;4942013;28;20050;-66
2021/03/15 07:56:19;;;;;;;3.72;2.00;;;5.50;73.80;;;3.58;75.63;95460.31;4945450;28;20050;-65
2021/03/15 07:58:44;;;;;;;5.15;1.95;;;5.50;74.00;;;3.63;75.44;95465.88;4951469;28;20039;-65
2021/03/15 08:01:12;;;;;;;5.32;2.45;;;5.60;74.20;;;3.71;75.70;95459.03;4935229;29;20439;-66
2021/03/15 08:03:38;;;;;;;5.57;2.22;;;5.70;74.10;;;3.73;75.61;95457.91;4919519;29;20714;-66
2021/03/15 08:06:04;;;;;;;4.57;2.10;;;5.70;74.10;;;3.83;75.55;95457.72;4921130;28;20047;-68
2021/03/15 08:08:30;;;;;;;4.88;1.70;;;5.90;73.30;;;3.94;75.11;95449.63;4953210;28;20033;-65
2021/03/15 08:10:56;;;;;;;2.75;1.70;;;6.10;72.20;;;4.01;74.71;95453.19;4934436;29;20035;-64
2021/03/15 08:13:25;;;;;;;3.08;1.48;;;6.10;70.70;;;4.05;74.80;95451.88;4935084;29;20039;-65
2021/03/15 08:15:52;;;;;;;2.40;1.40;;;6.10;70.90;;;4.10;74.41;95449.59;4938393;28;20106;-65
2021/03/15 08:18:23;;;;;;;3.35;1.33;;;6.20;70.90;;;4.15;73.72;95446.50;4931464;28;20113;-69
2021/03/15 08:21:07;;;;;;;3.83;1.63;;;6.20;70.50;;;4.28;73.31;95436.38;4917817;28;20039;-65
2021/03/15 08:23:39;;;;;;;3.10;1.73;;;6.50;69.60;;;4.45;73.72;95439.75;4916132;29;20487;-70
2021/03/15 08:26:09;;;;;;;6.70;1.40;;;7.10;68.80;;;4.61;72.96;95430.09;4920415;29;20492;-69
2021/03/15 08:28:36;;;;;;;4.07;1.70;;;7.10;68.50;;;4.75;72.92;95428.59;4941325;28;20480;-68
2021/03/15 08:31:18;;;;;;;4.43;2.03;;;7.20;66.80;;;5.03;71.20;95425.53;4933715;29;20031;-68
2021/03/15 08:33:45;;;;;;;4.15;2.00;;;7.90;64.80;;;5.18;72.54;95419.41;4902554;29;20045;-66
2021/03/15 08:36:14;;;;;;;3.38;1.70;;;7.80;65.20;;;5.34;72.22;95415.88;4939586;29;20119;-69
2021/03/15 08:38:39;;;;;;;2.88;1.52;;;7.80;65.30;;;5.42;72.31;95415.81;4933349;29;20050;-69
2021/03/15 08:41:06;;;;;;;3.53;1.63;;;7.70;65.20;;;5.47;72.22;95405.69;4930251;29;20039;-67
2021/03/15 08:43:43;;;;;;;3.22;1.30;;;7.80;65.50;;;5.67;69.92;95403.44;4955855;28;20104;-68
2021/03/15 08:46:30;;;;;;;3.97;1.40;;;8.10;64.20;;;5.71;70.58;95403.88;4934877;28;20509;-67
2021/03/15 08:49:00;;;;;;;2.50;1.48;;;7.90;65.80;;;5.76;69.50;95404.97;4935725;28;20066;-68
2021/03/15 08:51:35;;;;;;;4.53;1.60;;;7.90;65.10;;;5.74;70.49;95393.91;4950010;28;20039;-68
2021/03/15 08:54:05;;;;;;;1.98;1.20;;;7.70;65.70;;;5.70;70.43;95389.22;4951164;28;20040;-69
2021/03/15 08:56:31;;;;;;;5.20;1.75;;;7.50;65.90;;;5.65;70.28;95387.13;4898276;29;20043;-70
2021/03/15 08:58:57;;;;;;;3.47;2.00;;;7.50;67.80;;;5.58;70.87;95382.78;4929843;29;20051;-65
2021/03/15 09:01:45;;;;;;;2.33;1.70;;;7.40;67.80;;;5.51;68.81;95386.09;4915846;29;20525;-66
2021/03/15 09:04:29;;;;;;;2.88;1.90;;;7.20;67.60;;;5.46;69.45;95379.78;4948478;28;20040;-66
2021/03/15 09:06:54;;;;;;;2.40;1.30;;;7.10;67.70;;;5.44;71.15;95376.56;4926760;29;20098;-69
2021/03/15 09:09:24;;;;;;;2.58;1.52;;;7.10;68.40;;;5.34;70.81;95382.00;4932806;29;20109;-70
2021/03/15 09:12:03;;;;;;;2.28;1.38;;;7.00;69.30;;;5.26;70.33;95376.84;4932758;29;20055;-69
2021/03/15 09:14:34;;;;;;;4.18;1.20;;;6.90;69.10;;;5.19;71.47;95375.88;4915253;28;20482;-69
2021/03/15 09:17:15;;;;;;;3.00;1.17;;;6.90;70.60;;;5.09;70.82;95373.53;4917505;28;542072;-68
2021/03/15 09:19:45;;;;;;;3.53;1.33;;;6.70;70.20;;;5.06;70.97;95376.47;4969935;28;20255;-69
2021/03/15 09:22:34;;;;;;;2.67;1.50;;;6.80;70.40;;;5.01;72.12;95363.16;4949795;28;20115;-68
2021/03/15 09:25:04;;;;;;;4.13;1.58;;;6.70;71.70;;;4.99;72.13;95361.72;4952680;28;20109;-68
2021/03/15 09:27:38;;;;;;;1.77;1.08;;;6.70;71.90;;;5.02;72.32;95363.97;4918566;28;20031;-69
2021/03/15 09:30:22;;;;;;;1.52;1.10;;;6.90;71.60;;;5.06;73.20;95347.81;4934225;29;20031;-68
2021/03/15 09:32:55;;;;;;;2.28;1.10;;;7.00;72.00;;;5.11;72.45;95350.69;4951931;28;20039;-69
2021/03/15 09:35:39;;;;;;;2.05;1.00;;;7.10;71.10;;;5.12;71.24;95352.31;4954785;28;20558;-68
2021/03/15 09:38:10;;;;;;;3.88;1.20;;;7.00;69.70;;;5.13;72.33;95348.72;4968344;28;20057;-68
2021/03/15 09:40:42;;;;;;;1.38;0.98;;;7.00;71.00;;;5.10;72.02;95350.88;4953610;28;20054;-68
2021/03/15 09:43:08;;;;;;;2.03;1.10;;;6.80;71.50;;;5.07;71.86;95346.00;4937047;28;20276;-69
2021/03/15 09:45:39;;;;;;;2.15;1.08;;;6.70;71.40;;;5.04;71.72;95334.13;4941429;28;20573;-69
2021/03/15 09:48:21;;;;;;;1.67;0.90;;;6.80;71.60;;;5.05;72.49;95342.78;4897316;29;20062;-69
2021/03/15 09:50:51;;;;;;;2.20;1.15;;;6.80;71.50;;;5.05;71.81;95347.97;4930976;28;20059;-70
2021/03/15 09:53:17;;;;;;;3.38;1.80;;;6.90;71.80;;;5.05;71.86;95340.16;4926094;28;20046;-69
2021/03/15 09:55:42;;;;;;;2.33;1.30;;;6.90;71.70;;;5.03;72.54;95336.91;4927418;29;20031;-72
2021/03/15 09:58:14;;;;;;;1.63;1.05;;;6.80;72.00;;;5.00;72.64;95340.69;4916133;28;20055;-71
2021/03/15 10:00:41;;;;;;;1.05;0.70;;;6.80;72.00;;;4.90;72.37;95338.28;4905831;29;20048;-71
2021/03/15 10:03:07;;;;;;;1.95;1.08;;;6.50;72.50;;;4.87;72.43;95341.25;4933728;28;20024;-68
2021/03/15 10:05:32;;;;;;;1.63;0.85;;;6.60;73.00;;;4.81;72.71;95344.53;4933322;29;20057;-69
2021/03/15 10:07:58;;;;;;;0.93;0.40;;;6.40;72.30;;;4.72;72.39;95340.34;4927726;28;20035;-69
2021/03/15 10:10:25;;;;;;;1.27;0.60;;;6.30;72.60;;;4.60;72.19;95332.13;4917582;29;20043;-68
2021/03/15 10:13:03;;;;;;;1.42;0.70;;;6.20;73.60;;;4.56;73.42;95336.06;4933706;28;20054;-67
2021/03/15 10:15:29;;;;;;;0.60;0.52;;;6.20;73.50;;;4.54;72.68;95321.59;4952884;28;20083;-70
2021/03/15 10:17:54;;;;;;;0.77;0.50;;;6.20;73.30;;;4.55;72.62;95325.81;4928355;28;20506;-70
2021/03/15 10:20:26;;;;;;;1.10;0.50;;;6.20;73.60;;;4.57;72.82;95319.44;4913847;29;20051;-70
2021/03/15 10:22:51;;;;;;;;;;;6.40;73.50;;;4.64;74.20;95316.16;4931120;28;20118;-67
2021/03/15 10:25:17;;;;;;;1.73;0.80;;;6.60;72.90;;;4.72;72.89;95316.91;4923110;28;20400;-68
2021/03/15 10:27:57;;;;;;;2.00;1.17;;;6.60;71.20;;;4.73;72.61;95315.09;4937246;28;20070;-66
2021/03/15 10:30:31;;;;;;;0.88;0.60;;;6.50;71.90;;;4.84;72.89;95322.53;4945614;28;20054;-69
2021/03/15 10:32:58;;;;;;;1.08;0.57;;;6.80;71.60;;;4.99;72.87;95320.81;4938660;29;20051;-66
2021/03/15 10:35:25;;;;;;;1.02;0.45;;;7.10;71.10;;;5.16;72.04;95305.84;4919775;28;20042;-65
2021/03/15 10:37:53;;;;;;;0.75;0.50;;;7.30;69.80;;;5.28;71.81;95306.25;4921092;29;20491;-66
2021/03/15 10:40:20;;;;;;;1.63;0.40;;;7.30;69.20;;;5.35;72.13;95307.19;4933031;29;20511;-68
2021/03/15 10:42:46;;;;;;;0.43;0.43;;;7.30;68.70;;;5.48;71.90;95304.78;4906672;29;20048;-67
2021/03/15 10:45:12;;;;;;;0.73;0.50;;;7.50;69.40;;;5.56;71.42;95298.69;4932640;28;20070;-65